Nearby METAR Reports

 

KHOB - Hobbs, New Mexico, USA
Distance from station: S 40mi, 65km
Updated: Sun, 21-Apr-2019 6:15pm MDT
Clear
Clear
 Wind from WSW
Wind: WSW 16 mph , 26 km/h
Temperature: 86°F , 30°C
Dew Point: 19°F , -7°C
Humidity: 8%
Barometer: 29.86 inHg , 1011.2 hPa
Clouds: Clear
Visibility: 10 miles , 16 km
2019/04/22 00:15 KHOB 220015Z AUTO 24014KT 10SM CLR 30/M07 A2986 RMK AO2
KGNC - Seminole, Texas, USA
Distance from station: SE 55mi, 89km
Updated: Sun, 21-Apr-2019 6:15pm MDT
Clear
Clear
 Wind from SSW
Wind: SSW 13 mph , 20 km/h, Gust: 17 mph , 28 km/h
Temperature: 84°F , 29°C
Dew Point: 28°F , -2°C
Humidity: 13%
Barometer: 29.88 inHg , 1011.9 hPa
Clouds: Clear
Visibility: 10 miles , 16 km
2019/04/22 00:15 KGNC 220015Z AUTO 21011G15KT 10SM CLR 29/M02 A2988 RMK AO2 T02931017
 
KROW - Roswell, New Mexico, USA
Distance from station: W 67mi, 108km
Updated: Sun, 21-Apr-2019 5:51pm MDT
Clear
Clear
 Wind from W
Wind: W 18 mph , 30 km/h, Gust: 25 mph , 41 km/h
Temperature: 88°F , 31°C
Dew Point: 16°F , -9°C
Humidity: 7%
Barometer: 29.79 inHg , 1008.8 hPa
Clouds: Clear
Visibility: 10 miles , 16 km
2019/04/21 23:51 KROW 212351Z 27016G22KT 10SM CLR 31/M09 A2979 RMK AO2 SLP026 T03111089 10333 20300 55006
KATS - Artesia, New Mexico, USA
Distance from station: WSW 71mi, 114km
Updated: Sun, 21-Apr-2019 6:15pm MDT
Clear
Clear
 Wind from WSW
Wind: WSW 25 mph , 41 km/h, Gust: 32 mph , 52 km/h
Temperature: 86°F , 30°C
Dew Point: 27°F , -3°C
Humidity: 11%
Barometer: 29.83 inHg , 1010.2 hPa
Clouds: Clear
Visibility: 10 miles , 16 km
2019/04/22 00:15 KATS 220015Z AUTO 25022G28KT 10SM CLR 30/M03 A2983 RMK AO2
 
KCVS - Cannon AFB,Clovis, New Mexico, USA
Distance from station: 0 78mi, 125km
Updated: Sun, 21-Apr-2019 5:58pm MDT
Clear
Clear
 Wind from WSW
Wind: WSW 13 mph , 20 km/h
Temperature: 82°F , 28°C
Dew Point: 21°F , -6°C
Humidity: 10%
Barometer: 29.86 inHg , 1011.2 hPa
Clouds: Clear
Visibility: 10 miles , 16 km
2019/04/21 23:58 KCVS 212358Z AUTO 24011KT 10SM CLR 28/M06 A2986 RMK AO2 SLP065 T02751056 10284 20258 55004 $
KE11 - Andrews, Texas, USA
Distance from station: SE 78mi, 126km
Updated: Sun, 21-Apr-2019 6:15pm MDT
Clear
Clear
 Wind from WSW
Wind: WSW 15 mph , 24 km/h, Gust: 20 mph , 31 km/h
Temperature: 86°F , 30°C
Dew Point: 32°F , 0°C
Humidity: 14%
Barometer: 29.85 inHg , 1010.8 hPa
Clouds: Clear
Visibility: 10 miles , 16 km
2019/04/22 00:15 KE11 220015Z AUTO 24013G17KT 10SM CLR 30/00 A2985 RMK AO2 T02991001
 
KCNM - Carlsbad, New Mexico, USA
Distance from station: SW 82mi, 132km
Updated: Sun, 21-Apr-2019 5:53pm MDT
Clear
Clear
 Wind from SW
Wind: SW 17 mph , 28 km/h
Temperature: 88°F , 31°C
Dew Point: 28°F , -2°C
Humidity: 12%
Barometer: 29.82 inHg , 1009.8 hPa
Clouds: Clear
Visibility: 10 miles , 16 km
2019/04/21 23:53 KCNM 212353Z AUTO 22015KT 10SM CLR 31/M02 A2982 RMK AO2 PK WND 24027/2327 SLP042 T03061022 10322 20294 55008
KCVN - Clovis Muni, New Mexico, USA
Distance from station: N 83mi, 133km
Updated: Sun, 21-Apr-2019 5:56pm MDT
Clear
Clear
 Wind from WSW
Wind: WSW 17 mph , 28 km/h
Temperature: 82°F , 28°C
Dew Point: 25°F , -4°C
Humidity: 12%
Barometer: 29.85 inHg , 1010.8 hPa
Clouds: Clear
Visibility: 10 miles , 16 km
2019/04/21 23:56 KCVN 212356Z AUTO 25015KT 10SM CLR 28/M04 A2985 RMK AO2 SLP078 T02781044 10289 20261 55004
 
KLBB - Lubbock, Texas, USA
Distance from station: ENE 92mi, 149km
Updated: Sun, 21-Apr-2019 5:53pm MDT
Clear
Clear
 Wind from SSW
Wind: SSW 20 mph , 31 km/h, Gust: 24 mph , 39 km/h
Temperature: 86°F , 30°C
Dew Point: 27°F , -3°C
Humidity: 11%
Barometer: 29.81 inHg , 1009.5 hPa
Clouds: Clear
Visibility: 10 miles , 16 km
2019/04/21 23:53 KLBB 212353Z 21017G21KT 10SM CLR 30/M03 A2981 RMK AO2 SLP044 T03001033 10317 20294 56008 $
KINK - Wink, Texas, USA
Distance from station: S 101mi, 163km
Updated: Sun, 21-Apr-2019 5:53pm MDT
Clear
Clear
 Wind from WSW
Wind: WSW 12 mph , 19 km/h
Temperature: 90°F , 32°C
Dew Point: 27°F , -3°C
Humidity: 10%
Barometer: 29.81 inHg , 1009.5 hPa
Clouds: Clear
Visibility: 10 miles , 16 km
2019/04/21 23:53 KINK 212353Z AUTO 24010KT 10SM CLR 32/M03 A2981 RMK AO2 SLP053 T03221028 10333 20300 56009
 
KMAF - Midland, Texas, USA
Distance from station: SE 111mi, 179km
Updated: Sun, 21-Apr-2019 5:53pm MDT
Clear
Clear
 Wind from WSW
Wind: WSW 13 mph , 20 km/h
Temperature: 90°F , 32°C
Dew Point: 36°F , 2°C
Humidity: 15%
Barometer: 29.83 inHg , 1010.2 hPa
Clouds: Clear
Visibility: 10 miles , 16 km
2019/04/21 23:53 KMAF 212353Z 25011KT 10SM CLR 32/02 A2983 RMK AO2 SLP057 T03170022 10328 20306 56012 $
KSRR - Sierra B/Ruidoso, New Mexico, USA
Distance from station: W 127mi, 204km
Updated: Sun, 21-Apr-2019 6:15pm MDT
Clear
Clear
 Wind from SW
Wind: SW 18 mph , 30 km/h, Gust: 28 mph , 44 km/h
Temperature: 68°F , 20°C
Dew Point: 18°F , -8°C
Humidity: 14%
Barometer: 30.04 inHg , 1017.3 hPa
Clouds: Clear
Visibility: 10 miles , 16 km
2019/04/22 00:15 KSRR 220015Z AUTO 23016G24KT 10SM CLR 20/M08 A3004 RMK AO2
 
KGDP - Guadalupe Pass, Texas, USA
Distance from station: SW 130mi, 209km
Updated: Sun, 21-Apr-2019 5:51pm MDT
Clear
Clear
 Wind from WSW
Wind: WSW 30 mph , 48 km/h, Gust: 43 mph , 69 km/h
Temperature: 79°F , 26°C
Dew Point: 25°F , -4°C
Humidity: 13%
Barometer: 29.97 inHg , 1014.9 hPa
Clouds: Clear
Visibility: 10 miles , 16 km
2019/04/21 23:51 KGDP 212351Z AUTO 24026G37KT 10SM CLR 26/M04 A2997 RMK AO2 PK WND 24043/2315 SLP073 T02611039 10272 20244 56005